KAL701 RKSS-RKPK
Flight info
| Callsign | KAL701 |
|---|---|
| Flight time | 0h 42m |
| Altitude | 23000 |
| Route | OSPOT2T OSPOT Y782 TGU DCT MASTA GAYHA3 |
| Aircraft | B738/M-SDE2E3FGHIRWXY/LB1 |
Departure
| Time | 2026-04-30 08:47 |
|---|---|
| Airport | Gimpo International Airport (RKSS) |
Arrival
| Time | 2026-04-30 09:29 |
|---|---|
| Airport | Gimhae International Airport (RKPK) |
| Time | Latitude | Longitude | Altitude | Speed | Heading |
|---|---|---|---|---|---|
| 2026-04-30 08:20 | 37.55673 | 126.80435 | 60 ft | 0 kts | 45° |
| 2026-04-30 08:36 | 37.55671 | 126.80432 | 59 ft | 2 kts | 45° |
| 2026-04-30 08:37 | 37.55661 | 126.80419 | 59 ft | 2 kts | 45° |
| 2026-04-30 08:37 | 37.55650 | 126.80405 | 60 ft | 2 kts | 45° |
| 2026-04-30 08:37 | 37.55639 | 126.80393 | 60 ft | 2 kts | 45° |
| 2026-04-30 08:37 | 37.55628 | 126.80379 | 60 ft | 2 kts | 45° |
| 2026-04-30 08:38 | 37.55618 | 126.80365 | 60 ft | 2 kts | 56° |
| 2026-04-30 08:38 | 37.55612 | 126.80347 | 60 ft | 2 kts | 83° |
| 2026-04-30 08:38 | 37.55613 | 126.80329 | 60 ft | 2 kts | 108° |
| 2026-04-30 08:38 | 37.55619 | 126.80313 | 60 ft | 1 kts | 131° |
| 2026-04-30 08:39 | 37.55624 | 126.80307 | 60 ft | 1 kts | 136° |
| 2026-04-30 08:39 | 37.55625 | 126.80306 | 60 ft | 0 kts | 136° |
| 2026-04-30 08:41 | 37.55603 | 126.80320 | 60 ft | 10 kts | 176° |
| 2026-04-30 08:41 | 37.55530 | 126.80248 | 60 ft | 13 kts | 224° |
| 2026-04-30 08:41 | 37.55458 | 126.80183 | 60 ft | 12 kts | 186° |
| 2026-04-30 08:42 | 37.55386 | 126.80238 | 60 ft | 12 kts | 135° |
| 2026-04-30 08:42 | 37.55325 | 126.80314 | 60 ft | 11 kts | 136° |
| 2026-04-30 08:42 | 37.55270 | 126.80382 | 60 ft | 10 kts | 136° |
| 2026-04-30 08:42 | 37.55223 | 126.80443 | 60 ft | 9 kts | 128° |
| 2026-04-30 08:43 | 37.55176 | 126.80501 | 60 ft | 11 kts | 136° |
| 2026-04-30 08:43 | 37.55119 | 126.80572 | 59 ft | 10 kts | 134° |
| 2026-04-30 08:43 | 37.55069 | 126.80637 | 59 ft | 9 kts | 135° |
| 2026-04-30 08:43 | 37.55025 | 126.80692 | 59 ft | 8 kts | 135° |
| 2026-04-30 08:44 | 37.54988 | 126.80737 | 59 ft | 6 kts | 135° |
| 2026-04-30 08:44 | 37.54956 | 126.80776 | 59 ft | 5 kts | 136° |
| 2026-04-30 08:44 | 37.54926 | 126.80810 | 59 ft | 7 kts | 152° |
| 2026-04-30 08:44 | 37.54869 | 126.80801 | 59 ft | 9 kts | 211° |
| 2026-04-30 08:45 | 37.54829 | 126.80753 | 59 ft | 7 kts | 226° |
| 2026-04-30 08:45 | 37.54808 | 126.80711 | 59 ft | 5 kts | 259° |
| 2026-04-30 08:45 | 37.54811 | 126.80673 | 59 ft | 3 kts | 297° |
| 2026-04-30 08:45 | 37.54826 | 126.80649 | 59 ft | 3 kts | 310° |
| 2026-04-30 08:46 | 37.54847 | 126.80620 | 59 ft | 6 kts | 314° |
| 2026-04-30 08:46 | 37.54997 | 126.80430 | 59 ft | 69 kts | 314° |
| 2026-04-30 08:46 | 37.55530 | 126.79762 | 60 ft | 144 kts | 313° |
| 2026-04-30 08:46 | 37.56361 | 126.78783 | 524 ft | 172 kts | 314° |
| 2026-04-30 08:47 | 37.57191 | 126.77724 | 1463 ft | 175 kts | 311° |
| 2026-04-30 08:47 | 37.57908 | 126.76681 | 2393 ft | 149 kts | 310° |
| 2026-04-30 08:47 | 37.58636 | 126.75639 | 2816 ft | 169 kts | 313° |
| 2026-04-30 08:47 | 37.59442 | 126.74558 | 3496 ft | 173 kts | 314° |
| 2026-04-30 08:48 | 37.60283 | 126.73402 | 3982 ft | 191 kts | 313° |
| 2026-04-30 08:48 | 37.61206 | 126.72124 | 4540 ft | 205 kts | 314° |
| 2026-04-30 08:48 | 37.62042 | 126.70544 | 4960 ft | 230 kts | 290° |
| 2026-04-30 08:48 | 37.62098 | 126.68395 | 5013 ft | 264 kts | 255° |
| 2026-04-30 08:49 | 37.61217 | 126.66322 | 4988 ft | 275 kts | 232° |
| 2026-04-30 08:49 | 37.59946 | 126.64530 | 4983 ft | 276 kts | 228° |
| 2026-04-30 08:49 | 37.58626 | 126.62751 | 4984 ft | 274 kts | 228° |
| 2026-04-30 08:49 | 37.57317 | 126.61000 | 4990 ft | 275 kts | 225° |
| 2026-04-30 08:50 | 37.55787 | 126.59586 | 4992 ft | 277 kts | 205° |
| 2026-04-30 08:50 | 37.53847 | 126.59026 | 5479 ft | 290 kts | 185° |
| 2026-04-30 08:50 | 37.51883 | 126.58797 | 6696 ft | 281 kts | 185° |
| 2026-04-30 08:50 | 37.49964 | 126.58539 | 7680 ft | 280 kts | 185° |
| 2026-04-30 08:51 | 37.48046 | 126.58275 | 8613 ft | 281 kts | 185° |
| 2026-04-30 08:51 | 37.46103 | 126.58010 | 9564 ft | 280 kts | 184° |
| 2026-04-30 08:51 | 37.44178 | 126.57751 | 10407 ft | 283 kts | 184° |
| 2026-04-30 08:51 | 37.42148 | 126.57479 | 10936 ft | 297 kts | 185° |
| 2026-04-30 08:52 | 37.40040 | 126.57394 | 11416 ft | 311 kts | 174° |
| 2026-04-30 08:52 | 37.37857 | 126.57860 | 11881 ft | 326 kts | 167° |
| 2026-04-30 08:52 | 37.35541 | 126.58526 | 11995 ft | 350 kts | 166° |
| 2026-04-30 08:52 | 37.34713 | 126.58825 | 11992 ft | 354 kts | 161° |
| 2026-04-30 08:53 | 37.32452 | 126.60235 | 12006 ft | 360 kts | 147° |
| 2026-04-30 08:53 | 37.30542 | 126.62324 | 12580 ft | 367 kts | 134° |
| 2026-04-30 08:53 | 37.28921 | 126.64725 | 13557 ft | 365 kts | 131° |
| 2026-04-30 08:53 | 37.27330 | 126.67232 | 14252 ft | 370 kts | 130° |
| 2026-04-30 08:54 | 37.25716 | 126.69798 | 15009 ft | 375 kts | 130° |
| 2026-04-30 08:54 | 37.24105 | 126.72347 | 15633 ft | 379 kts | 131° |
| 2026-04-30 08:54 | 37.22446 | 126.74957 | 16369 ft | 382 kts | 131° |
| 2026-04-30 08:54 | 37.20775 | 126.77576 | 17044 ft | 386 kts | 131° |
| 2026-04-30 08:55 | 37.19098 | 126.80199 | 17658 ft | 389 kts | 131° |
| 2026-04-30 08:55 | 37.17430 | 126.82805 | 17936 ft | 391 kts | 132° |
| 2026-04-30 08:55 | 37.15712 | 126.85484 | 18526 ft | 396 kts | 132° |
| 2026-04-30 08:55 | 37.13980 | 126.88183 | 19184 ft | 399 kts | 132° |
| 2026-04-30 08:56 | 37.12222 | 126.90918 | 19809 ft | 403 kts | 133° |
| 2026-04-30 08:56 | 37.10473 | 126.93637 | 20360 ft | 408 kts | 133° |
| 2026-04-30 08:56 | 37.08670 | 126.96435 | 20973 ft | 411 kts | 133° |
| 2026-04-30 08:56 | 37.06873 | 126.99224 | 21521 ft | 415 kts | 134° |
| 2026-04-30 08:57 | 37.05060 | 127.02035 | 22059 ft | 419 kts | 134° |
| 2026-04-30 08:57 | 37.03229 | 127.04874 | 22636 ft | 421 kts | 135° |
| 2026-04-30 08:57 | 37.01352 | 127.07779 | 22890 ft | 428 kts | 135° |
| 2026-04-30 08:57 | 36.99468 | 127.10693 | 22912 ft | 429 kts | 135° |
| 2026-04-30 08:58 | 36.97618 | 127.13560 | 22918 ft | 427 kts | 135° |
| 2026-04-30 08:58 | 36.95755 | 127.16444 | 22919 ft | 425 kts | 135° |
| 2026-04-30 08:58 | 36.93897 | 127.19315 | 22917 ft | 426 kts | 135° |
| 2026-04-30 08:58 | 36.92025 | 127.22201 | 22916 ft | 427 kts | 135° |
| 2026-04-30 08:59 | 36.90150 | 127.25093 | 22916 ft | 427 kts | 135° |
| 2026-04-30 08:59 | 36.88277 | 127.27976 | 22919 ft | 428 kts | 135° |
| 2026-04-30 08:59 | 36.86402 | 127.30862 | 22919 ft | 428 kts | 135° |
| 2026-04-30 08:59 | 36.84543 | 127.33727 | 22919 ft | 426 kts | 135° |
| 2026-04-30 09:00 | 36.82572 | 127.36506 | 22919 ft | 424 kts | 139° |
| 2026-04-30 09:00 | 36.80488 | 127.39125 | 22917 ft | 422 kts | 141° |
| 2026-04-30 09:00 | 36.78404 | 127.41654 | 22913 ft | 423 kts | 141° |
| 2026-04-30 09:00 | 36.76274 | 127.44226 | 22914 ft | 423 kts | 141° |
| 2026-04-30 09:01 | 36.74160 | 127.46788 | 22916 ft | 424 kts | 141° |
| 2026-04-30 09:01 | 36.72028 | 127.49377 | 22916 ft | 425 kts | 141° |
| 2026-04-30 09:01 | 36.69929 | 127.51933 | 22915 ft | 424 kts | 141° |
| 2026-04-30 09:01 | 36.67792 | 127.54541 | 22917 ft | 424 kts | 141° |
| 2026-04-30 09:02 | 36.63580 | 127.59676 | 22921 ft | 425 kts | 141° |
| 2026-04-30 09:02 | 36.61448 | 127.62273 | 22924 ft | 426 kts | 141° |
| 2026-04-30 09:02 | 36.59328 | 127.64857 | 22924 ft | 425 kts | 141° |
| 2026-04-30 09:03 | 36.57213 | 127.67434 | 22923 ft | 426 kts | 141° |
| 2026-04-30 09:03 | 36.55099 | 127.70007 | 22923 ft | 425 kts | 141° |
| 2026-04-30 09:03 | 36.52984 | 127.72581 | 22923 ft | 425 kts | 141° |
| 2026-04-30 09:03 | 36.50854 | 127.75170 | 22921 ft | 425 kts | 141° |
| 2026-04-30 09:04 | 36.48738 | 127.77741 | 22921 ft | 426 kts | 141° |
| 2026-04-30 09:04 | 36.46611 | 127.80322 | 22927 ft | 427 kts | 141° |
| 2026-04-30 09:04 | 36.44488 | 127.82897 | 22930 ft | 426 kts | 142° |
| 2026-04-30 09:04 | 36.42368 | 127.85470 | 22931 ft | 427 kts | 141° |
| 2026-04-30 09:05 | 36.40246 | 127.88042 | 22931 ft | 428 kts | 142° |
| 2026-04-30 09:05 | 36.38126 | 127.90611 | 22930 ft | 426 kts | 142° |
| 2026-04-30 09:05 | 36.36007 | 127.93177 | 22933 ft | 427 kts | 141° |
| 2026-04-30 09:05 | 36.33859 | 127.95774 | 22934 ft | 429 kts | 141° |
| 2026-04-30 09:06 | 36.31722 | 127.98355 | 22936 ft | 430 kts | 142° |
| 2026-04-30 09:06 | 36.29582 | 128.00938 | 22937 ft | 428 kts | 142° |
| 2026-04-30 09:06 | 36.27446 | 128.03519 | 22932 ft | 427 kts | 142° |
| 2026-04-30 09:06 | 36.25320 | 128.06079 | 22933 ft | 430 kts | 141° |
| 2026-04-30 09:07 | 36.23179 | 128.08653 | 22934 ft | 431 kts | 141° |
| 2026-04-30 09:07 | 36.21040 | 128.11229 | 22931 ft | 428 kts | 142° |
| 2026-04-30 09:07 | 36.18892 | 128.13812 | 22932 ft | 429 kts | 142° |
| 2026-04-30 09:07 | 36.16751 | 128.16380 | 22932 ft | 430 kts | 142° |
| 2026-04-30 09:08 | 36.14600 | 128.18964 | 22932 ft | 429 kts | 142° |
| 2026-04-30 09:08 | 36.12462 | 128.21526 | 22931 ft | 430 kts | 142° |
| 2026-04-30 09:08 | 36.10309 | 128.24106 | 22927 ft | 429 kts | 141° |
| 2026-04-30 09:08 | 36.08152 | 128.26688 | 22926 ft | 429 kts | 142° |
| 2026-04-30 09:09 | 36.06000 | 128.29260 | 22929 ft | 429 kts | 142° |
| 2026-04-30 09:09 | 36.03860 | 128.31818 | 22930 ft | 431 kts | 142° |
| 2026-04-30 09:09 | 36.01691 | 128.34407 | 22929 ft | 430 kts | 142° |
| 2026-04-30 09:09 | 35.99537 | 128.36978 | 22934 ft | 430 kts | 142° |
| 2026-04-30 09:10 | 35.97368 | 128.39566 | 22935 ft | 431 kts | 142° |
| 2026-04-30 09:10 | 35.95219 | 128.42125 | 22932 ft | 432 kts | 142° |
| 2026-04-30 09:10 | 35.93049 | 128.44708 | 22935 ft | 432 kts | 142° |
| 2026-04-30 09:10 | 35.90890 | 128.47276 | 22934 ft | 430 kts | 142° |
| 2026-04-30 09:11 | 35.88737 | 128.49834 | 22940 ft | 432 kts | 142° |
| 2026-04-30 09:11 | 35.86546 | 128.52380 | 22932 ft | 428 kts | 144° |
| 2026-04-30 09:11 | 35.84253 | 128.54662 | 22936 ft | 421 kts | 151° |
| 2026-04-30 09:11 | 35.81684 | 128.56380 | 22944 ft | 412 kts | 163° |
| 2026-04-30 09:12 | 35.78985 | 128.57448 | 22937 ft | 408 kts | 169° |
| 2026-04-30 09:12 | 35.76256 | 128.58247 | 22838 ft | 396 kts | 175° |
| 2026-04-30 09:12 | 35.73580 | 128.58469 | 22476 ft | 381 kts | 185° |
| 2026-04-30 09:12 | 35.70933 | 128.58302 | 21800 ft | 379 kts | 187° |
| 2026-04-30 09:13 | 35.68312 | 128.58037 | 21126 ft | 379 kts | 188° |
| 2026-04-30 09:13 | 35.65663 | 128.57762 | 20500 ft | 377 kts | 187° |
| 2026-04-30 09:13 | 35.63051 | 128.57503 | 19913 ft | 375 kts | 187° |
| 2026-04-30 09:13 | 35.60451 | 128.57254 | 19251 ft | 376 kts | 186° |
| 2026-04-30 09:14 | 35.57884 | 128.57014 | 18906 ft | 370 kts | 186° |
| 2026-04-30 09:14 | 35.55305 | 128.56776 | 18439 ft | 368 kts | 186° |
| 2026-04-30 09:14 | 35.52786 | 128.56545 | 17938 ft | 368 kts | 186° |
| 2026-04-30 09:14 | 35.50229 | 128.56372 | 17405 ft | 368 kts | 183° |
| 2026-04-30 09:15 | 35.47657 | 128.56457 | 16998 ft | 366 kts | 176° |
| 2026-04-30 09:15 | 35.45134 | 128.56917 | 16573 ft | 365 kts | 171° |
| 2026-04-30 09:15 | 35.42640 | 128.57558 | 16222 ft | 361 kts | 169° |
| 2026-04-30 09:15 | 35.40229 | 128.58228 | 16108 ft | 350 kts | 169° |
| 2026-04-30 09:16 | 35.37891 | 128.58879 | 16011 ft | 340 kts | 169° |
| 2026-04-30 09:16 | 35.35643 | 128.59502 | 15895 ft | 330 kts | 169° |
| 2026-04-30 09:16 | 35.33422 | 128.60110 | 15762 ft | 319 kts | 169° |
| 2026-04-30 09:16 | 35.31316 | 128.60692 | 15540 ft | 305 kts | 169° |
| 2026-04-30 09:17 | 35.29279 | 128.61253 | 15314 ft | 292 kts | 169° |
| 2026-04-30 09:17 | 35.27329 | 128.61791 | 14985 ft | 285 kts | 169° |
| 2026-04-30 09:17 | 35.25397 | 128.62320 | 14495 ft | 283 kts | 170° |
| 2026-04-30 09:17 | 35.23483 | 128.62842 | 14061 ft | 278 kts | 171° |
| 2026-04-30 09:18 | 35.21620 | 128.63069 | 13792 ft | 264 kts | 181° |
| 2026-04-30 09:18 | 35.19829 | 128.63016 | 13574 ft | 250 kts | 182° |
| 2026-04-30 09:18 | 35.18142 | 128.63043 | 13305 ft | 241 kts | 177° |
| 2026-04-30 09:18 | 35.16471 | 128.63289 | 12851 ft | 241 kts | 173° |
| 2026-04-30 09:19 | 35.14814 | 128.63643 | 12407 ft | 240 kts | 171° |
| 2026-04-30 09:19 | 35.13221 | 128.64096 | 12191 ft | 230 kts | 166° |
| 2026-04-30 09:19 | 35.11746 | 128.64708 | 12012 ft | 219 kts | 163° |
| 2026-04-30 09:19 | 35.10344 | 128.65323 | 11881 ft | 207 kts | 161° |
| 2026-04-30 09:20 | 35.09040 | 128.66037 | 11576 ft | 205 kts | 156° |
| 2026-04-30 09:20 | 35.07789 | 128.66852 | 11193 ft | 206 kts | 154° |
| 2026-04-30 09:20 | 35.06550 | 128.67735 | 10878 ft | 204 kts | 151° |
| 2026-04-30 09:20 | 35.05379 | 128.68709 | 10537 ft | 204 kts | 147° |
| 2026-04-30 09:21 | 35.04260 | 128.69763 | 10212 ft | 204 kts | 145° |
| 2026-04-30 09:21 | 35.03162 | 128.70869 | 9837 ft | 205 kts | 142° |
| 2026-04-30 09:21 | 35.02148 | 128.72061 | 9494 ft | 206 kts | 137° |
| 2026-04-30 09:21 | 35.01183 | 128.73358 | 9105 ft | 208 kts | 132° |
| 2026-04-30 09:22 | 35.00549 | 128.74933 | 8707 ft | 215 kts | 97° |
| 2026-04-30 09:22 | 35.00929 | 128.76677 | 8345 ft | 214 kts | 51° |
| 2026-04-30 09:22 | 35.02086 | 128.77719 | 7886 ft | 208 kts | 21° |
| 2026-04-30 09:22 | 35.03375 | 128.78305 | 7757 ft | 184 kts | 22° |
| 2026-04-30 09:23 | 35.04488 | 128.79047 | 7321 ft | 185 kts | 32° |
| 2026-04-30 09:23 | 35.05507 | 128.79944 | 6962 ft | 179 kts | 36° |
| 2026-04-30 09:23 | 35.06490 | 128.80850 | 6595 ft | 173 kts | 35° |
| 2026-04-30 09:23 | 35.07431 | 128.81726 | 6164 ft | 172 kts | 34° |
| 2026-04-30 09:24 | 35.08385 | 128.82617 | 5762 ft | 168 kts | 35° |
| 2026-04-30 09:24 | 35.09297 | 128.83473 | 5341 ft | 166 kts | 35° |
| 2026-04-30 09:24 | 35.10199 | 128.84337 | 4889 ft | 165 kts | 36° |
| 2026-04-30 09:24 | 35.11084 | 128.85181 | 4523 ft | 159 kts | 35° |
| 2026-04-30 09:25 | 35.11950 | 128.85985 | 4183 ft | 152 kts | 35° |
| 2026-04-30 09:25 | 35.12770 | 128.86763 | 3797 ft | 150 kts | 36° |
| 2026-04-30 09:25 | 35.13600 | 128.87549 | 3381 ft | 147 kts | 36° |
| 2026-04-30 09:25 | 35.14399 | 128.88304 | 2950 ft | 147 kts | 37° |
| 2026-04-30 09:26 | 35.15194 | 128.89061 | 2541 ft | 145 kts | 37° |
| 2026-04-30 09:26 | 35.15992 | 128.89819 | 2100 ft | 145 kts | 39° |
| 2026-04-30 09:26 | 35.16841 | 128.90457 | 1684 ft | 145 kts | 22° |
| 2026-04-30 09:26 | 35.17838 | 128.90622 | 1352 ft | 145 kts | 1° |
| 2026-04-30 09:27 | 35.18850 | 128.90443 | 1219 ft | 147 kts | 355° |
| 2026-04-30 09:27 | 35.19891 | 128.90218 | 987 ft | 150 kts | 355° |
| 2026-04-30 09:27 | 35.20884 | 128.90309 | 877 ft | 143 kts | 23° |
| 2026-04-30 09:27 | 35.21688 | 128.91020 | 689 ft | 147 kts | 57° |
| 2026-04-30 09:28 | 35.21912 | 128.92209 | 483 ft | 146 kts | 96° |
| 2026-04-30 09:28 | 35.21397 | 128.93239 | 527 ft | 149 kts | 148° |
| 2026-04-30 09:28 | 35.20350 | 128.93416 | 335 ft | 161 kts | 179° |
| 2026-04-30 09:28 | 35.19243 | 128.93521 | 120 ft | 154 kts | 168° |
| 2026-04-30 09:29 | 35.18236 | 128.93654 | 26 ft | 137 kts | 172° |
| 2026-04-30 09:29 | 35.17482 | 128.93759 | 24 ft | 76 kts | 172° |
| 2026-04-30 09:29 | 35.17142 | 128.93852 | 24 ft | 31 kts | 148° |
| 2026-04-30 09:29 | 35.17009 | 128.93961 | 24 ft | 21 kts | 142° |
| 2026-04-30 09:30 | 35.16967 | 128.94115 | 24 ft | 18 kts | 85° |
| 2026-04-30 09:30 | 35.16981 | 128.94261 | 24 ft | 14 kts | 86° |
| 2026-04-30 09:30 | 35.16990 | 128.94377 | 24 ft | 12 kts | 84° |
| 2026-04-30 09:30 | 35.17000 | 128.94481 | 24 ft | 11 kts | 84° |